sensor_id;sensor_type;location;lat;lon;timestamp;temperature;humidity
78475;SHT31;67766;51.964;5.660;2023-10-09T00:01:52;17.1;75.3
78475;SHT31;67766;51.964;5.660;2023-10-09T00:04:21;17.1;74.9
78475;SHT31;67766;51.964;5.660;2023-10-09T00:06:51;17.1;74.8
78475;SHT31;67766;51.964;5.660;2023-10-09T00:09:23;17.1;75.3
78475;SHT31;67766;51.964;5.660;2023-10-09T00:12:01;17.1;75.4
78475;SHT31;67766;51.964;5.660;2023-10-09T00:14:35;17.1;75.3
78475;SHT31;67766;51.964;5.660;2023-10-09T00:17:06;17.1;75.1
78475;SHT31;67766;51.964;5.660;2023-10-09T00:19:41;17.1;75.0
78475;SHT31;67766;51.964;5.660;2023-10-09T00:22:14;17.1;74.8
78475;SHT31;67766;51.964;5.660;2023-10-09T00:24:55;17.1;74.7
78475;SHT31;67766;51.964;5.660;2023-10-09T00:27:41;17.1;74.5
78475;SHT31;67766;51.964;5.660;2023-10-09T00:30:14;17.2;74.5
78475;SHT31;67766;51.964;5.660;2023-10-09T00:32:47;17.2;74.4
78475;SHT31;67766;51.964;5.660;2023-10-09T00:35:26;17.2;74.5
78475;SHT31;67766;51.964;5.660;2023-10-09T00:38:14;17.2;74.2
78475;SHT31;67766;51.964;5.660;2023-10-09T00:40:52;17.2;74.3
78475;SHT31;67766;51.964;5.660;2023-10-09T00:43:37;17.3;73.9
78475;SHT31;67766;51.964;5.660;2023-10-09T00:46:11;17.3;74.1
78475;SHT31;67766;51.964;5.660;2023-10-09T00:48:48;17.3;73.8
78475;SHT31;67766;51.964;5.660;2023-10-09T00:51:18;17.3;73.9
78475;SHT31;67766;51.964;5.660;2023-10-09T00:53:52;17.3;73.6
78475;SHT31;67766;51.964;5.660;2023-10-09T00:56:22;17.3;73.4
78475;SHT31;67766;51.964;5.660;2023-10-09T00:59:05;17.3;73.6
78475;SHT31;67766;51.964;5.660;2023-10-09T01:01:42;17.4;73.3
78475;SHT31;67766;51.964;5.660;2023-10-09T01:04:19;17.4;73.3
78475;SHT31;67766;51.964;5.660;2023-10-09T01:06:49;17.4;73.0
78475;SHT31;67766;51.964;5.660;2023-10-09T01:09:25;17.4;73.1
78475;SHT31;67766;51.964;5.660;2023-10-09T01:11:55;17.4;73.4
78475;SHT31;67766;51.964;5.660;2023-10-09T01:14:33;17.4;74.0
78475;SHT31;67766;51.964;5.660;2023-10-09T01:17:05;17.4;73.8
78475;SHT31;67766;51.964;5.660;2023-10-09T01:19:41;17.4;73.5
78475;SHT31;67766;51.964;5.660;2023-10-09T01:22:11;17.4;73.6
78475;SHT31;67766;51.964;5.660;2023-10-09T01:24:43;17.5;73.6
78475;SHT31;67766;51.964;5.660;2023-10-09T01:27:13;17.5;73.4
78475;SHT31;67766;51.964;5.660;2023-10-09T01:29:44;17.5;73.4
78475;SHT31;67766;51.964;5.660;2023-10-09T01:32:13;17.5;73.6
78475;SHT31;67766;51.964;5.660;2023-10-09T01:34:46;17.5;73.5
78475;SHT31;67766;51.964;5.660;2023-10-09T01:37:20;17.5;73.5
78475;SHT31;67766;51.964;5.660;2023-10-09T01:39:52;17.5;73.5
78475;SHT31;67766;51.964;5.660;2023-10-09T01:42:22;17.6;73.6
78475;SHT31;67766;51.964;5.660;2023-10-09T01:44:59;17.6;73.7
78475;SHT31;67766;51.964;5.660;2023-10-09T01:47:35;17.6;73.6
78475;SHT31;67766;51.964;5.660;2023-10-09T01:50:06;17.6;73.6
78475;SHT31;67766;51.964;5.660;2023-10-09T01:52:39;17.7;73.6
78475;SHT31;67766;51.964;5.660;2023-10-09T01:55:12;17.7;73.4
78475;SHT31;67766;51.964;5.660;2023-10-09T01:57:47;17.7;73.3
78475;SHT31;67766;51.964;5.660;2023-10-09T02:00:17;17.7;73.4
78475;SHT31;67766;51.964;5.660;2023-10-09T02:02:51;17.8;73.4
78475;SHT31;67766;51.964;5.660;2023-10-09T02:05:21;17.8;73.5
78475;SHT31;67766;51.964;5.660;2023-10-09T02:07:56;17.8;73.5
78475;SHT31;67766;51.964;5.660;2023-10-09T02:10:26;17.8;73.4
78475;SHT31;67766;51.964;5.660;2023-10-09T02:13:00;17.9;73.3
78475;SHT31;67766;51.964;5.660;2023-10-09T02:15:35;17.9;73.3
78475;SHT31;67766;51.964;5.660;2023-10-09T02:18:23;17.9;73.3
78475;SHT31;67766;51.964;5.660;2023-10-09T02:21:07;17.9;73.2
78475;SHT31;67766;51.964;5.660;2023-10-09T02:23:42;17.9;73.3
78475;SHT31;67766;51.964;5.660;2023-10-09T02:26:18;17.9;73.3
78475;SHT31;67766;51.964;5.660;2023-10-09T02:28:55;18.0;73.1
78475;SHT31;67766;51.964;5.660;2023-10-09T02:31:32;18.0;73.3
78475;SHT31;67766;51.964;5.660;2023-10-09T02:34:08;18.0;73.6
78475;SHT31;67766;51.964;5.660;2023-10-09T02:36:38;18.0;73.7
78475;SHT31;67766;51.964;5.660;2023-10-09T02:39:10;18.0;73.8
78475;SHT31;67766;51.964;5.660;2023-10-09T02:41:46;18.0;74.2
78475;SHT31;67766;51.964;5.660;2023-10-09T02:44:17;18.0;74.5
78475;SHT31;67766;51.964;5.660;2023-10-09T02:46:51;17.9;74.7
78475;SHT31;67766;51.964;5.660;2023-10-09T02:49:25;17.9;74.8
78475;SHT31;67766;51.964;5.660;2023-10-09T02:51:55;17.9;75.2
78475;SHT31;67766;51.964;5.660;2023-10-09T02:54:25;17.9;75.1
78475;SHT31;67766;51.964;5.660;2023-10-09T02:57:02;17.9;75.3
78475;SHT31;67766;51.964;5.660;2023-10-09T02:59:35;17.9;75.1
78475;SHT31;67766;51.964;5.660;2023-10-09T03:02:10;17.9;75.3
78475;SHT31;67766;51.964;5.660;2023-10-09T03:04:40;17.9;75.3
78475;SHT31;67766;51.964;5.660;2023-10-09T03:07:10;17.9;75.3
78475;SHT31;67766;51.964;5.660;2023-10-09T03:09:41;17.9;75.1
78475;SHT31;67766;51.964;5.660;2023-10-09T03:12:10;18.0;75.1
78475;SHT31;67766;51.964;5.660;2023-10-09T03:14:44;18.0;75.4
78475;SHT31;67766;51.964;5.660;2023-10-09T03:17:15;18.0;75.2
78475;SHT31;67766;51.964;5.660;2023-10-09T03:19:48;18.0;75.1
78475;SHT31;67766;51.964;5.660;2023-10-09T03:22:17;18.0;75.4
78475;SHT31;67766;51.964;5.660;2023-10-09T03:24:47;18.0;75.5
78475;SHT31;67766;51.964;5.660;2023-10-09T03:27:18;18.0;75.4
78475;SHT31;67766;51.964;5.660;2023-10-09T03:29:47;18.0;75.4
78475;SHT31;67766;51.964;5.660;2023-10-09T03:32:21;18.0;75.3
78475;SHT31;67766;51.964;5.660;2023-10-09T03:34:53;18.0;75.4
78475;SHT31;67766;51.964;5.660;2023-10-09T03:37:22;18.0;75.4
78475;SHT31;67766;51.964;5.660;2023-10-09T03:39:58;18.0;75.3
78475;SHT31;67766;51.964;5.660;2023-10-09T03:42:28;18.0;75.3
78475;SHT31;67766;51.964;5.660;2023-10-09T03:44:57;18.0;75.4
78475;SHT31;67766;51.964;5.660;2023-10-09T03:47:29;18.0;75.2
78475;SHT31;67766;51.964;5.660;2023-10-09T03:50:01;18.1;75.4
78475;SHT31;67766;51.964;5.660;2023-10-09T03:52:36;18.1;75.3
78475;SHT31;67766;51.964;5.660;2023-10-09T03:55:08;18.1;75.3
78475;SHT31;67766;51.964;5.660;2023-10-09T03:57:42;18.1;75.2
78475;SHT31;67766;51.964;5.660;2023-10-09T04:00:16;18.1;75.3
78475;SHT31;67766;51.964;5.660;2023-10-09T04:02:51;18.1;75.3
78475;SHT31;67766;51.964;5.660;2023-10-09T04:05:20;18.1;75.4
78475;SHT31;67766;51.964;5.660;2023-10-09T04:07:50;18.1;75.3
78475;SHT31;67766;51.964;5.660;2023-10-09T04:10:21;18.1;75.1
78475;SHT31;67766;51.964;5.660;2023-10-09T04:13:07;18.1;75.0
78475;SHT31;67766;51.964;5.660;2023-10-09T04:15:40;18.2;74.9
78475;SHT31;67766;51.964;5.660;2023-10-09T04:18:10;18.2;74.8
78475;SHT31;67766;51.964;5.660;2023-10-09T04:20:44;18.2;74.7
78475;SHT31;67766;51.964;5.660;2023-10-09T04:23:21;18.3;74.5
78475;SHT31;67766;51.964;5.660;2023-10-09T04:25:56;18.3;74.3
78475;SHT31;67766;51.964;5.660;2023-10-09T04:28:29;18.3;74.2
78475;SHT31;67766;51.964;5.660;2023-10-09T04:31:00;18.3;74.0
78475;SHT31;67766;51.964;5.660;2023-10-09T04:33:33;18.4;74.0
78475;SHT31;67766;51.964;5.660;2023-10-09T04:36:14;18.4;74.0
78475;SHT31;67766;51.964;5.660;2023-10-09T04:38:56;18.4;74.0
78475;SHT31;67766;51.964;5.660;2023-10-09T04:41:33;18.4;74.5
78475;SHT31;67766;51.964;5.660;2023-10-09T04:44:08;18.4;74.3
78475;SHT31;67766;51.964;5.660;2023-10-09T04:46:51;18.4;74.3
78475;SHT31;67766;51.964;5.660;2023-10-09T04:49:38;18.4;74.3
78475;SHT31;67766;51.964;5.660;2023-10-09T04:52:18;18.4;74.4
78475;SHT31;67766;51.964;5.660;2023-10-09T04:54:53;18.4;74.3
78475;SHT31;67766;51.964;5.660;2023-10-09T04:57:38;18.5;74.3
78475;SHT31;67766;51.964;5.660;2023-10-09T05:00:15;18.5;74.5
78475;SHT31;67766;51.964;5.660;2023-10-09T05:02:58;18.5;74.2
78475;SHT31;67766;51.964;5.660;2023-10-09T05:05:33;18.5;74.3
78475;SHT31;67766;51.964;5.660;2023-10-09T05:09:16;18.5;74.3
78475;SHT31;67766;51.964;5.660;2023-10-09T05:11:48;18.5;74.3
78475;SHT31;67766;51.964;5.660;2023-10-09T05:14:28;18.5;74.1
78475;SHT31;67766;51.964;5.660;2023-10-09T05:17:02;18.5;74.2
78475;SHT31;67766;51.964;5.660;2023-10-09T05:19:36;18.5;74.3
78475;SHT31;67766;51.964;5.660;2023-10-09T05:22:54;18.6;74.2
78475;SHT31;67766;51.964;5.660;2023-10-09T05:25:31;18.6;74.4
78475;SHT31;67766;51.964;5.660;2023-10-09T05:28:23;18.6;74.3
78475;SHT31;67766;51.964;5.660;2023-10-09T05:31:06;18.6;74.3
78475;SHT31;67766;51.964;5.660;2023-10-09T05:33:36;18.6;74.1
78475;SHT31;67766;51.964;5.660;2023-10-09T05:36:07;18.6;74.1
78475;SHT31;67766;51.964;5.660;2023-10-09T05:39:26;18.6;74.2
78475;SHT31;67766;51.964;5.660;2023-10-09T05:42:04;18.7;74.3
78475;SHT31;67766;51.964;5.660;2023-10-09T05:44:39;18.7;74.2
78475;SHT31;67766;51.964;5.660;2023-10-09T05:49:15;18.7;74.5
78475;SHT31;67766;51.964;5.660;2023-10-09T05:51:52;18.7;74.2
78475;SHT31;67766;51.964;5.660;2023-10-09T05:54:27;18.7;74.3
78475;SHT31;67766;51.964;5.660;2023-10-09T05:57:13;18.7;74.2
78475;SHT31;67766;51.964;5.660;2023-10-09T06:01:55;18.7;74.0
78475;SHT31;67766;51.964;5.660;2023-10-09T06:04:43;18.7;74.2
78475;SHT31;67766;51.964;5.660;2023-10-09T06:07:21;18.8;74.2
78475;SHT31;67766;51.964;5.660;2023-10-09T06:09:57;18.8;74.1
78475;SHT31;67766;51.964;5.660;2023-10-09T06:12:32;18.8;74.0
78475;SHT31;67766;51.964;5.660;2023-10-09T06:15:23;18.8;74.1
78475;SHT31;67766;51.964;5.660;2023-10-09T06:18:06;18.8;74.1
78475;SHT31;67766;51.964;5.660;2023-10-09T06:21:00;18.8;74.3
78475;SHT31;67766;51.964;5.660;2023-10-09T06:23:44;18.8;74.3
78475;SHT31;67766;51.964;5.660;2023-10-09T06:26:31;18.9;74.5
78475;SHT31;67766;51.964;5.660;2023-10-09T06:29:02;18.8;74.7
78475;SHT31;67766;51.964;5.660;2023-10-09T06:32:07;18.8;74.8
78475;SHT31;67766;51.964;5.660;2023-10-09T06:34:52;18.7;75.3
78475;SHT31;67766;51.964;5.660;2023-10-09T06:37:24;18.7;75.4
78475;SHT31;67766;51.964;5.660;2023-10-09T06:40:10;18.7;75.5
78475;SHT31;67766;51.964;5.660;2023-10-09T06:42:57;18.7;75.6
78475;SHT31;67766;51.964;5.660;2023-10-09T06:45:34;18.7;75.7
78475;SHT31;67766;51.964;5.660;2023-10-09T06:48:10;18.7;75.7
78475;SHT31;67766;51.964;5.660;2023-10-09T06:51:13;18.7;75.8
78475;SHT31;67766;51.964;5.660;2023-10-09T06:53:50;18.7;76.2
78475;SHT31;67766;51.964;5.660;2023-10-09T06:56:32;18.7;76.2
78475;SHT31;67766;51.964;5.660;2023-10-09T06:59:31;18.7;76.2
78475;SHT31;67766;51.964;5.660;2023-10-09T07:02:15;18.7;76.0
78475;SHT31;67766;51.964;5.660;2023-10-09T07:04:54;18.7;75.8
78475;SHT31;67766;51.964;5.660;2023-10-09T07:07:24;18.7;75.8
78475;SHT31;67766;51.964;5.660;2023-10-09T07:09:54;18.8;75.7
78475;SHT31;67766;51.964;5.660;2023-10-09T07:12:40;18.8;75.6
78475;SHT31;67766;51.964;5.660;2023-10-09T07:15:13;18.8;75.4
78475;SHT31;67766;51.964;5.660;2023-10-09T07:19:51;18.9;75.3
78475;SHT31;67766;51.964;5.660;2023-10-09T07:22:40;18.9;75.3
78475;SHT31;67766;51.964;5.660;2023-10-09T07:25:23;19.0;75.2
78475;SHT31;67766;51.964;5.660;2023-10-09T07:28:15;19.0;75.1
78475;SHT31;67766;51.964;5.660;2023-10-09T07:30:52;19.0;75.3
78475;SHT31;67766;51.964;5.660;2023-10-09T07:33:25;19.0;75.2
78475;SHT31;67766;51.964;5.660;2023-10-09T07:36:06;19.1;75.3
78475;SHT31;67766;51.964;5.660;2023-10-09T07:38:40;19.1;75.3
78475;SHT31;67766;51.964;5.660;2023-10-09T07:41:12;19.1;75.5
78475;SHT31;67766;51.964;5.660;2023-10-09T07:45:54;19.1;75.4
78475;SHT31;67766;51.964;5.660;2023-10-09T07:49:02;19.1;76.3
78475;SHT31;67766;51.964;5.660;2023-10-09T07:51:40;19.1;76.3
78475;SHT31;67766;51.964;5.660;2023-10-09T07:54:11;19.0;76.3
78475;SHT31;67766;51.964;5.660;2023-10-09T07:56:43;19.0;76.4
78475;SHT31;67766;51.964;5.660;2023-10-09T07:59:14;19.0;76.5
78475;SHT31;67766;51.964;5.660;2023-10-09T08:01:48;19.0;76.6
78475;SHT31;67766;51.964;5.660;2023-10-09T08:04:22;18.9;76.9
78475;SHT31;67766;51.964;5.660;2023-10-09T08:06:58;18.9;77.2
78475;SHT31;67766;51.964;5.660;2023-10-09T08:09:32;18.9;77.5
78475;SHT31;67766;51.964;5.660;2023-10-09T08:12:13;19.0;77.6
78475;SHT31;67766;51.964;5.660;2023-10-09T08:14:51;19.0;77.6
78475;SHT31;67766;51.964;5.660;2023-10-09T08:17:25;19.0;77.4
78475;SHT31;67766;51.964;5.660;2023-10-09T08:19:56;19.1;77.2
78475;SHT31;67766;51.964;5.660;2023-10-09T08:22:28;19.2;76.8
78475;SHT31;67766;51.964;5.660;2023-10-09T08:25:17;19.2;76.6
78475;SHT31;67766;51.964;5.660;2023-10-09T08:27:57;19.3;76.4
78475;SHT31;67766;51.964;5.660;2023-10-09T08:30:33;19.3;76.3
78475;SHT31;67766;51.964;5.660;2023-10-09T08:33:17;19.4;75.9
78475;SHT31;67766;51.964;5.660;2023-10-09T08:36:10;19.5;75.9
78475;SHT31;67766;51.964;5.660;2023-10-09T08:38:43;19.5;75.8
78475;SHT31;67766;51.964;5.660;2023-10-09T08:41:13;19.6;75.3
78475;SHT31;67766;51.964;5.660;2023-10-09T08:43:50;19.6;75.3
78475;SHT31;67766;51.964;5.660;2023-10-09T08:46:21;19.7;75.2
78475;SHT31;67766;51.964;5.660;2023-10-09T08:48:57;19.7;75.0
78475;SHT31;67766;51.964;5.660;2023-10-09T08:51:28;19.8;74.9
78475;SHT31;67766;51.964;5.660;2023-10-09T08:53:59;19.8;74.6
78475;SHT31;67766;51.964;5.660;2023-10-09T08:56:29;19.9;74.7
78475;SHT31;67766;51.964;5.660;2023-10-09T08:58:59;19.9;74.7
78475;SHT31;67766;51.964;5.660;2023-10-09T09:01:29;20.0;74.7
78475;SHT31;67766;51.964;5.660;2023-10-09T09:04:01;20.1;74.9
78475;SHT31;67766;51.964;5.660;2023-10-09T09:06:38;20.1;75.0
78475;SHT31;67766;51.964;5.660;2023-10-09T09:09:12;20.2;74.6
78475;SHT31;67766;51.964;5.660;2023-10-09T09:11:45;20.4;74.0
78475;SHT31;67766;51.964;5.660;2023-10-09T09:14:18;20.5;74.0
78475;SHT31;67766;51.964;5.660;2023-10-09T09:16:50;20.6;72.9
78475;SHT31;67766;51.964;5.660;2023-10-09T09:19:32;20.7;72.8
78475;SHT31;67766;51.964;5.660;2023-10-09T09:22:05;20.8;72.3
78475;SHT31;67766;51.964;5.660;2023-10-09T09:24:58;20.8;72.1
78475;SHT31;67766;51.964;5.660;2023-10-09T09:27:45;20.9;72.1
78475;SHT31;67766;51.964;5.660;2023-10-09T09:30:27;21.0;71.6
78475;SHT31;67766;51.964;5.660;2023-10-09T09:33:18;21.0;71.3
78475;SHT31;67766;51.964;5.660;2023-10-09T09:35:57;21.1;71.6
78475;SHT31;67766;51.964;5.660;2023-10-09T09:38:30;21.1;71.3
78475;SHT31;67766;51.964;5.660;2023-10-09T09:41:11;21.2;71.0
78475;SHT31;67766;51.964;5.660;2023-10-09T09:43:47;21.3;70.5
78475;SHT31;67766;51.964;5.660;2023-10-09T09:46:18;21.4;70.2
78475;SHT31;67766;51.964;5.660;2023-10-09T09:48:54;21.4;70.2
78475;SHT31;67766;51.964;5.660;2023-10-09T09:51:29;21.5;69.8
78475;SHT31;67766;51.964;5.660;2023-10-09T09:53:59;21.5;69.8
78475;SHT31;67766;51.964;5.660;2023-10-09T09:56:31;21.6;69.3
78475;SHT31;67766;51.964;5.660;2023-10-09T09:59:02;21.6;69.1
78475;SHT31;67766;51.964;5.660;2023-10-09T10:01:37;21.7;69.0
78475;SHT31;67766;51.964;5.660;2023-10-09T10:04:12;21.7;68.7
78475;SHT31;67766;51.964;5.660;2023-10-09T10:06:49;21.7;68.6
78475;SHT31;67766;51.964;5.660;2023-10-09T10:09:37;21.8;68.4
78475;SHT31;67766;51.964;5.660;2023-10-09T10:12:12;21.8;67.7
78475;SHT31;67766;51.964;5.660;2023-10-09T10:14:55;21.9;67.8
78475;SHT31;67766;51.964;5.660;2023-10-09T10:17:26;21.9;67.4
78475;SHT31;67766;51.964;5.660;2023-10-09T10:20:07;21.9;67.5
78475;SHT31;67766;51.964;5.660;2023-10-09T10:23:17;22.0;67.2
78475;SHT31;67766;51.964;5.660;2023-10-09T10:25:48;22.0;67.2
78475;SHT31;67766;51.964;5.660;2023-10-09T10:28:26;22.1;67.2
78475;SHT31;67766;51.964;5.660;2023-10-09T10:31:06;22.2;66.8
78475;SHT31;67766;51.964;5.660;2023-10-09T10:34:07;22.2;66.6
78475;SHT31;67766;51.964;5.660;2023-10-09T10:36:38;22.4;66.1
78475;SHT31;67766;51.964;5.660;2023-10-09T10:39:11;22.4;65.4
78475;SHT31;67766;51.964;5.660;2023-10-09T10:41:55;22.5;65.5
78475;SHT31;67766;51.964;5.660;2023-10-09T10:44:27;22.6;65.1
78475;SHT31;67766;51.964;5.660;2023-10-09T10:47:04;22.7;64.8
78475;SHT31;67766;51.964;5.660;2023-10-09T10:49:42;22.8;64.4
78475;SHT31;67766;51.964;5.660;2023-10-09T10:52:21;22.9;64.5
78475;SHT31;67766;51.964;5.660;2023-10-09T10:55:09;23.0;64.3
78475;SHT31;67766;51.964;5.660;2023-10-09T10:58:20;23.1;63.6
78475;SHT31;67766;51.964;5.660;2023-10-09T11:00:59;23.2;63.4
78475;SHT31;67766;51.964;5.660;2023-10-09T11:03:43;23.2;63.3
78475;SHT31;67766;51.964;5.660;2023-10-09T11:06:30;23.3;63.0
78475;SHT31;67766;51.964;5.660;2023-10-09T11:09:06;23.4;62.6
78475;SHT31;67766;51.964;5.660;2023-10-09T11:11:46;23.4;62.6
78475;SHT31;67766;51.964;5.660;2023-10-09T11:14:16;23.5;62.7
78475;SHT31;67766;51.964;5.660;2023-10-09T11:16:51;23.5;62.7
78475;SHT31;67766;51.964;5.660;2023-10-09T11:19:25;23.6;62.3
78475;SHT31;67766;51.964;5.660;2023-10-09T11:22:00;23.6;61.7
78475;SHT31;67766;51.964;5.660;2023-10-09T11:24:49;23.7;61.6
78475;SHT31;67766;51.964;5.660;2023-10-09T11:27:37;23.8;61.6
78475;SHT31;67766;51.964;5.660;2023-10-09T11:30:08;23.8;61.5
78475;SHT31;67766;51.964;5.660;2023-10-09T11:32:45;23.9;61.2
78475;SHT31;67766;51.964;5.660;2023-10-09T11:35:19;24.0;60.9
78475;SHT31;67766;51.964;5.660;2023-10-09T11:37:57;24.0;60.3
78475;SHT31;67766;51.964;5.660;2023-10-09T11:40:30;24.1;59.7
78475;SHT31;67766;51.964;5.660;2023-10-09T11:43:07;24.1;59.3
78475;SHT31;67766;51.964;5.660;2023-10-09T11:45:41;24.1;59.7
78475;SHT31;67766;51.964;5.660;2023-10-09T11:48:18;24.2;59.6
78475;SHT31;67766;51.964;5.660;2023-10-09T11:50:53;24.2;60.1
78475;SHT31;67766;51.964;5.660;2023-10-09T11:53:28;24.2;60.2
78475;SHT31;67766;51.964;5.660;2023-10-09T11:56:05;24.2;59.2
78475;SHT31;67766;51.964;5.660;2023-10-09T11:58:40;24.2;58.8
78475;SHT31;67766;51.964;5.660;2023-10-09T12:01:13;24.2;58.4
78475;SHT31;67766;51.964;5.660;2023-10-09T12:03:45;24.3;58.4
78475;SHT31;67766;51.964;5.660;2023-10-09T12:06:18;24.3;57.9
78475;SHT31;67766;51.964;5.660;2023-10-09T12:08:50;24.3;57.9
78475;SHT31;67766;51.964;5.660;2023-10-09T12:11:21;24.3;58.0
78475;SHT31;67766;51.964;5.660;2023-10-09T12:13:56;24.3;58.0
78475;SHT31;67766;51.964;5.660;2023-10-09T12:16:28;24.3;58.1
78475;SHT31;67766;51.964;5.660;2023-10-09T12:19:00;24.3;58.1
78475;SHT31;67766;51.964;5.660;2023-10-09T12:21:32;24.3;57.6
78475;SHT31;67766;51.964;5.660;2023-10-09T12:24:02;24.3;57.7
78475;SHT31;67766;51.964;5.660;2023-10-09T12:26:37;24.3;57.5
78475;SHT31;67766;51.964;5.660;2023-10-09T12:29:08;24.3;57.7
78475;SHT31;67766;51.964;5.660;2023-10-09T12:31:38;24.3;57.4
78475;SHT31;67766;51.964;5.660;2023-10-09T12:34:13;24.3;57.1
78475;SHT31;67766;51.964;5.660;2023-10-09T12:36:44;24.3;57.1
78475;SHT31;67766;51.964;5.660;2023-10-09T12:39:14;24.3;56.8
78475;SHT31;67766;51.964;5.660;2023-10-09T12:41:47;24.4;56.9
78475;SHT31;67766;51.964;5.660;2023-10-09T12:44:20;24.4;57.1
78475;SHT31;67766;51.964;5.660;2023-10-09T12:46:52;24.4;57.2
78475;SHT31;67766;51.964;5.660;2023-10-09T12:49:22;24.4;56.9
78475;SHT31;67766;51.964;5.660;2023-10-09T12:51:54;24.4;56.9
78475;SHT31;67766;51.964;5.660;2023-10-09T12:54:25;24.4;56.8
78475;SHT31;67766;51.964;5.660;2023-10-09T12:56:56;24.4;57.0
78475;SHT31;67766;51.964;5.660;2023-10-09T12:59:26;24.4;57.3
78475;SHT31;67766;51.964;5.660;2023-10-09T13:01:56;24.4;57.3
78475;SHT31;67766;51.964;5.660;2023-10-09T13:04:26;24.4;57.1
78475;SHT31;67766;51.964;5.660;2023-10-09T13:06:59;24.3;57.3
78475;SHT31;67766;51.964;5.660;2023-10-09T13:09:30;24.3;57.4
78475;SHT31;67766;51.964;5.660;2023-10-09T13:12:03;24.3;57.4
78475;SHT31;67766;51.964;5.660;2023-10-09T13:14:33;24.3;57.4
78475;SHT31;67766;51.964;5.660;2023-10-09T13:17:03;24.3;57.5
78475;SHT31;67766;51.964;5.660;2023-10-09T13:19:37;24.3;57.8
78475;SHT31;67766;51.964;5.660;2023-10-09T13:22:07;24.3;58.0
78475;SHT31;67766;51.964;5.660;2023-10-09T13:24:40;24.3;58.2
78475;SHT31;67766;51.964;5.660;2023-10-09T13:27:10;24.3;58.3
78475;SHT31;67766;51.964;5.660;2023-10-09T13:29:43;24.3;58.1
78475;SHT31;67766;51.964;5.660;2023-10-09T13:32:12;24.3;58.2
78475;SHT31;67766;51.964;5.660;2023-10-09T13:34:43;24.3;58.4
78475;SHT31;67766;51.964;5.660;2023-10-09T13:37:13;24.3;58.3
78475;SHT31;67766;51.964;5.660;2023-10-09T13:39:48;24.3;58.4
78475;SHT31;67766;51.964;5.660;2023-10-09T13:42:23;24.4;58.5
78475;SHT31;67766;51.964;5.660;2023-10-09T13:44:53;24.4;58.3
78475;SHT31;67766;51.964;5.660;2023-10-09T13:47:23;24.4;58.3
78475;SHT31;67766;51.964;5.660;2023-10-09T13:49:57;24.4;58.1
78475;SHT31;67766;51.964;5.660;2023-10-09T13:52:27;24.4;58.0
78475;SHT31;67766;51.964;5.660;2023-10-09T13:54:58;24.4;58.2
78475;SHT31;67766;51.964;5.660;2023-10-09T13:57:32;24.4;58.3
78475;SHT31;67766;51.964;5.660;2023-10-09T14:00:02;24.4;58.0
78475;SHT31;67766;51.964;5.660;2023-10-09T14:02:37;24.4;58.0
78475;SHT31;67766;51.964;5.660;2023-10-09T14:05:07;24.4;57.9
78475;SHT31;67766;51.964;5.660;2023-10-09T14:07:37;24.4;58.1
78475;SHT31;67766;51.964;5.660;2023-10-09T14:10:10;24.4;58.0
78475;SHT31;67766;51.964;5.660;2023-10-09T14:12:51;24.4;58.2
78475;SHT31;67766;51.964;5.660;2023-10-09T14:15:21;24.4;58.5
78475;SHT31;67766;51.964;5.660;2023-10-09T14:17:51;24.4;58.7
78475;SHT31;67766;51.964;5.660;2023-10-09T14:20:23;24.3;58.6
78475;SHT31;67766;51.964;5.660;2023-10-09T14:22:57;24.3;58.7
78475;SHT31;67766;51.964;5.660;2023-10-09T14:25:32;24.3;58.6
78475;SHT31;67766;51.964;5.660;2023-10-09T14:28:05;24.3;58.6
78475;SHT31;67766;51.964;5.660;2023-10-09T14:30:37;24.3;58.7
78475;SHT31;67766;51.964;5.660;2023-10-09T14:33:11;24.3;58.6
78475;SHT31;67766;51.964;5.660;2023-10-09T14:35:43;24.3;58.7
78475;SHT31;67766;51.964;5.660;2023-10-09T14:38:13;24.3;58.7
78475;SHT31;67766;51.964;5.660;2023-10-09T14:40:44;24.3;58.9
78475;SHT31;67766;51.964;5.660;2023-10-09T14:43:17;24.3;59.2
78475;SHT31;67766;51.964;5.660;2023-10-09T14:45:54;24.3;59.2
78475;SHT31;67766;51.964;5.660;2023-10-09T14:48:25;24.2;58.8
78475;SHT31;67766;51.964;5.660;2023-10-09T14:50:56;24.2;58.7
78475;SHT31;67766;51.964;5.660;2023-10-09T14:53:31;24.2;58.4
78475;SHT31;67766;51.964;5.660;2023-10-09T14:56:02;24.2;58.4
78475;SHT31;67766;51.964;5.660;2023-10-09T14:58:36;24.2;58.3
78475;SHT31;67766;51.964;5.660;2023-10-09T15:01:10;24.2;58.4
78475;SHT31;67766;51.964;5.660;2023-10-09T15:03:42;24.2;58.5
78475;SHT31;67766;51.964;5.660;2023-10-09T15:06:14;24.2;58.6
78475;SHT31;67766;51.964;5.660;2023-10-09T15:08:45;24.2;58.7
78475;SHT31;67766;51.964;5.660;2023-10-09T15:11:16;24.2;58.7
78475;SHT31;67766;51.964;5.660;2023-10-09T15:13:50;24.2;58.6
78475;SHT31;67766;51.964;5.660;2023-10-09T15:16:21;24.2;58.7
78475;SHT31;67766;51.964;5.660;2023-10-09T15:18:55;24.2;58.7
78475;SHT31;67766;51.964;5.660;2023-10-09T15:21:25;24.2;58.8
78475;SHT31;67766;51.964;5.660;2023-10-09T15:23:56;24.1;58.8
78475;SHT31;67766;51.964;5.660;2023-10-09T15:26:26;24.1;58.8
78475;SHT31;67766;51.964;5.660;2023-10-09T15:29:02;24.1;58.7
78475;SHT31;67766;51.964;5.660;2023-10-09T15:31:34;24.1;58.7
78475;SHT31;67766;51.964;5.660;2023-10-09T15:34:03;24.1;58.8
78475;SHT31;67766;51.964;5.660;2023-10-09T15:36:35;24.1;58.9
78475;SHT31;67766;51.964;5.660;2023-10-09T15:39:07;24.0;59.0
78475;SHT31;67766;51.964;5.660;2023-10-09T15:41:39;24.0;59.1
78475;SHT31;67766;51.964;5.660;2023-10-09T15:44:09;24.0;59.1
78475;SHT31;67766;51.964;5.660;2023-10-09T15:46:40;24.0;59.2
78475;SHT31;67766;51.964;5.660;2023-10-09T15:49:12;23.9;59.2
78475;SHT31;67766;51.964;5.660;2023-10-09T15:51:42;23.9;59.3
78475;SHT31;67766;51.964;5.660;2023-10-09T15:54:14;23.9;59.4
78475;SHT31;67766;51.964;5.660;2023-10-09T15:56:46;23.9;59.5
78475;SHT31;67766;51.964;5.660;2023-10-09T15:59:16;23.9;59.6
78475;SHT31;67766;51.964;5.660;2023-10-09T16:01:48;23.8;59.7
78475;SHT31;67766;51.964;5.660;2023-10-09T16:04:18;23.8;60.0
78475;SHT31;67766;51.964;5.660;2023-10-09T16:06:48;23.8;60.1
78475;SHT31;67766;51.964;5.660;2023-10-09T16:09:20;23.8;60.3
78475;SHT31;67766;51.964;5.660;2023-10-09T16:11:53;23.8;60.3
78475;SHT31;67766;51.964;5.660;2023-10-09T16:14:22;23.8;60.6
78475;SHT31;67766;51.964;5.660;2023-10-09T16:16:54;23.8;60.7
78475;SHT31;67766;51.964;5.660;2023-10-09T16:19:24;23.8;60.6
78475;SHT31;67766;51.964;5.660;2023-10-09T16:21:55;23.8;60.4
78475;SHT31;67766;51.964;5.660;2023-10-09T16:24:25;23.8;60.3
78475;SHT31;67766;51.964;5.660;2023-10-09T16:26:56;23.8;60.6
78475;SHT31;67766;51.964;5.660;2023-10-09T16:29:26;23.8;60.3
78475;SHT31;67766;51.964;5.660;2023-10-09T16:31:57;23.8;60.4
78475;SHT31;67766;51.964;5.660;2023-10-09T16:34:26;23.7;60.5
78475;SHT31;67766;51.964;5.660;2023-10-09T16:36:56;23.7;60.5
78475;SHT31;67766;51.964;5.660;2023-10-09T16:39:27;23.7;60.6
78475;SHT31;67766;51.964;5.660;2023-10-09T16:42:02;23.7;60.7
78475;SHT31;67766;51.964;5.660;2023-10-09T16:44:32;23.7;60.7
78475;SHT31;67766;51.964;5.660;2023-10-09T16:47:04;23.6;60.8
78475;SHT31;67766;51.964;5.660;2023-10-09T16:49:33;23.6;60.8
78475;SHT31;67766;51.964;5.660;2023-10-09T16:52:03;23.6;60.8
78475;SHT31;67766;51.964;5.660;2023-10-09T16:54:38;23.6;60.9
78475;SHT31;67766;51.964;5.660;2023-10-09T16:57:10;23.5;61.0
78475;SHT31;67766;51.964;5.660;2023-10-09T16:59:40;23.5;61.1
78475;SHT31;67766;51.964;5.660;2023-10-09T17:02:11;23.5;61.2
78475;SHT31;67766;51.964;5.660;2023-10-09T17:04:46;23.5;61.3